sensor_id;sensor_type;location;lat;lon;timestamp;P1;durP1;ratioP1;P2;durP2;ratioP2
80425;SDS011;69766;51.476;5.704;2023-07-09T00:00:46;19.52;;;12.00;;
80425;SDS011;69766;51.476;5.704;2023-07-09T00:03:13;20.88;;;12.27;;
80425;SDS011;69766;51.476;5.704;2023-07-09T00:05:39;17.77;;;11.30;;
80425;SDS011;69766;51.476;5.704;2023-07-09T00:08:05;20.63;;;12.10;;
80425;SDS011;69766;51.476;5.704;2023-07-09T00:10:40;19.27;;;11.60;;
80425;SDS011;69766;51.476;5.704;2023-07-09T00:13:05;20.85;;;12.32;;
80425;SDS011;69766;51.476;5.704;2023-07-09T00:15:32;19.95;;;11.50;;
80425;SDS011;69766;51.476;5.704;2023-07-09T00:17:58;20.35;;;12.43;;
80425;SDS011;69766;51.476;5.704;2023-07-09T00:20:25;19.15;;;11.40;;
80425;SDS011;69766;51.476;5.704;2023-07-09T00:22:51;19.83;;;11.63;;
80425;SDS011;69766;51.476;5.704;2023-07-09T00:25:18;18.38;;;10.90;;
80425;SDS011;69766;51.476;5.704;2023-07-09T00:27:46;20.07;;;11.97;;
80425;SDS011;69766;51.476;5.704;2023-07-09T00:30:18;21.40;;;11.23;;
80425;SDS011;69766;51.476;5.704;2023-07-09T00:32:47;17.02;;;11.43;;
80425;SDS011;69766;51.476;5.704;2023-07-09T00:35:13;18.00;;;11.18;;
80425;SDS011;69766;51.476;5.704;2023-07-09T00:37:42;21.77;;;12.63;;
80425;SDS011;69766;51.476;5.704;2023-07-09T00:40:16;21.48;;;12.60;;
80425;SDS011;69766;51.476;5.704;2023-07-09T00:42:45;22.33;;;11.77;;
80425;SDS011;69766;51.476;5.704;2023-07-09T00:45:18;17.63;;;11.65;;
80425;SDS011;69766;51.476;5.704;2023-07-09T00:47:50;18.98;;;11.50;;
80425;SDS011;69766;51.476;5.704;2023-07-09T00:50:26;20.52;;;11.88;;
80425;SDS011;69766;51.476;5.704;2023-07-09T00:52:59;20.98;;;12.57;;
80425;SDS011;69766;51.476;5.704;2023-07-09T00:55:34;17.33;;;12.20;;
80425;SDS011;69766;51.476;5.704;2023-07-09T00:58:05;19.35;;;12.43;;
80425;SDS011;69766;51.476;5.704;2023-07-09T01:00:37;18.08;;;11.50;;
80425;SDS011;69766;51.476;5.704;2023-07-09T01:03:15;20.88;;;12.30;;
80425;SDS011;69766;51.476;5.704;2023-07-09T01:05:47;22.58;;;14.63;;
80425;SDS011;69766;51.476;5.704;2023-07-09T01:08:20;19.92;;;12.23;;
80425;SDS011;69766;51.476;5.704;2023-07-09T01:10:46;20.38;;;12.95;;
80425;SDS011;69766;51.476;5.704;2023-07-09T01:13:12;20.55;;;13.73;;
80425;SDS011;69766;51.476;5.704;2023-07-09T01:15:39;24.73;;;15.38;;
80425;SDS011;69766;51.476;5.704;2023-07-09T01:18:05;22.35;;;13.90;;
80425;SDS011;69766;51.476;5.704;2023-07-09T01:20:31;21.40;;;13.57;;
80425;SDS011;69766;51.476;5.704;2023-07-09T01:22:58;22.13;;;14.65;;
80425;SDS011;69766;51.476;5.704;2023-07-09T01:25:26;20.63;;;14.48;;
80425;SDS011;69766;51.476;5.704;2023-07-09T01:27:53;26.75;;;16.10;;
80425;SDS011;69766;51.476;5.704;2023-07-09T01:30:20;22.13;;;15.05;;
80425;SDS011;69766;51.476;5.704;2023-07-09T01:32:55;26.38;;;14.95;;
80425;SDS011;69766;51.476;5.704;2023-07-09T01:35:23;26.92;;;16.65;;
80425;SDS011;69766;51.476;5.704;2023-07-09T01:37:51;25.67;;;15.32;;
80425;SDS011;69766;51.476;5.704;2023-07-09T01:40:19;25.08;;;15.38;;
80425;SDS011;69766;51.476;5.704;2023-07-09T01:42:46;24.77;;;16.40;;
80425;SDS011;69766;51.476;5.704;2023-07-09T01:45:12;27.27;;;17.08;;
80425;SDS011;69766;51.476;5.704;2023-07-09T01:47:38;23.40;;;16.45;;
80425;SDS011;69766;51.476;5.704;2023-07-09T01:50:05;27.50;;;17.75;;
80425;SDS011;69766;51.476;5.704;2023-07-09T01:52:32;25.02;;;16.65;;
80425;SDS011;69766;51.476;5.704;2023-07-09T01:54:58;25.58;;;17.23;;
80425;SDS011;69766;51.476;5.704;2023-07-09T01:57:25;26.88;;;16.70;;
80425;SDS011;69766;51.476;5.704;2023-07-09T01:59:58;25.02;;;15.85;;
80425;SDS011;69766;51.476;5.704;2023-07-09T02:02:24;26.63;;;17.45;;
80425;SDS011;69766;51.476;5.704;2023-07-09T02:04:52;23.88;;;16.02;;
80425;SDS011;69766;51.476;5.704;2023-07-09T02:07:19;26.98;;;15.73;;
80425;SDS011;69766;51.476;5.704;2023-07-09T02:09:46;26.48;;;15.00;;
80425;SDS011;69766;51.476;5.704;2023-07-09T02:12:12;24.75;;;15.43;;
80425;SDS011;69766;51.476;5.704;2023-07-09T02:14:39;22.73;;;15.38;;
80425;SDS011;69766;51.476;5.704;2023-07-09T02:17:06;24.73;;;16.17;;
80425;SDS011;69766;51.476;5.704;2023-07-09T02:19:33;26.52;;;16.98;;
80425;SDS011;69766;51.476;5.704;2023-07-09T02:21:59;25.80;;;16.05;;
80425;SDS011;69766;51.476;5.704;2023-07-09T02:24:24;26.85;;;15.70;;
80425;SDS011;69766;51.476;5.704;2023-07-09T02:26:56;25.27;;;16.58;;
80425;SDS011;69766;51.476;5.704;2023-07-09T02:29:24;26.83;;;16.67;;
80425;SDS011;69766;51.476;5.704;2023-07-09T02:31:51;25.95;;;16.35;;
80425;SDS011;69766;51.476;5.704;2023-07-09T02:34:18;23.75;;;16.50;;
80425;SDS011;69766;51.476;5.704;2023-07-09T02:36:44;28.90;;;17.02;;
80425;SDS011;69766;51.476;5.704;2023-07-09T02:39:10;22.77;;;16.02;;
80425;SDS011;69766;51.476;5.704;2023-07-09T02:41:37;24.73;;;16.90;;
80425;SDS011;69766;51.476;5.704;2023-07-09T02:44:04;25.77;;;16.42;;
80425;SDS011;69766;51.476;5.704;2023-07-09T02:46:30;26.67;;;17.25;;
80425;SDS011;69766;51.476;5.704;2023-07-09T02:48:56;28.05;;;17.75;;
80425;SDS011;69766;51.476;5.704;2023-07-09T02:51:22;25.52;;;16.38;;
80425;SDS011;69766;51.476;5.704;2023-07-09T02:53:51;26.85;;;17.58;;
80425;SDS011;69766;51.476;5.704;2023-07-09T02:56:20;24.48;;;17.70;;
80425;SDS011;69766;51.476;5.704;2023-07-09T02:58:46;25.75;;;16.63;;
80425;SDS011;69766;51.476;5.704;2023-07-09T03:01:12;28.10;;;17.73;;
80425;SDS011;69766;51.476;5.704;2023-07-09T03:03:38;26.73;;;17.40;;
80425;SDS011;69766;51.476;5.704;2023-07-09T03:06:05;30.05;;;16.83;;
80425;SDS011;69766;51.476;5.704;2023-07-09T03:08:31;24.13;;;16.23;;
80425;SDS011;69766;51.476;5.704;2023-07-09T03:10:57;22.25;;;15.48;;
80425;SDS011;69766;51.476;5.704;2023-07-09T03:13:23;26.17;;;16.90;;
80425;SDS011;69766;51.476;5.704;2023-07-09T03:15:55;24.30;;;15.90;;
80425;SDS011;69766;51.476;5.704;2023-07-09T03:18:22;24.52;;;15.82;;
80425;SDS011;69766;51.476;5.704;2023-07-09T03:20:48;21.52;;;14.38;;
80425;SDS011;69766;51.476;5.704;2023-07-09T03:23:14;21.00;;;15.40;;
80425;SDS011;69766;51.476;5.704;2023-07-09T03:25:43;26.15;;;15.18;;
80425;SDS011;69766;51.476;5.704;2023-07-09T03:28:12;22.25;;;14.82;;
80425;SDS011;69766;51.476;5.704;2023-07-09T03:30:41;25.63;;;15.90;;
80425;SDS011;69766;51.476;5.704;2023-07-09T03:33:08;26.92;;;17.35;;
80425;SDS011;69766;51.476;5.704;2023-07-09T03:35:34;24.60;;;17.10;;
80425;SDS011;69766;51.476;5.704;2023-07-09T03:38:01;27.73;;;19.70;;
80425;SDS011;69766;51.476;5.704;2023-07-09T03:40:27;25.38;;;16.95;;
80425;SDS011;69766;51.476;5.704;2023-07-09T03:42:53;25.67;;;18.10;;
80425;SDS011;69766;51.476;5.704;2023-07-09T03:45:18;28.65;;;19.38;;
80425;SDS011;69766;51.476;5.704;2023-07-09T03:47:44;29.25;;;18.75;;
80425;SDS011;69766;51.476;5.704;2023-07-09T03:50:10;27.05;;;17.75;;
80425;SDS011;69766;51.476;5.704;2023-07-09T03:52:36;26.23;;;18.27;;
80425;SDS011;69766;51.476;5.704;2023-07-09T03:55:02;30.40;;;18.50;;
80425;SDS011;69766;51.476;5.704;2023-07-09T03:57:32;29.67;;;19.38;;
80425;SDS011;69766;51.476;5.704;2023-07-09T03:59:59;31.90;;;19.80;;
80425;SDS011;69766;51.476;5.704;2023-07-09T04:02:24;28.45;;;19.27;;
80425;SDS011;69766;51.476;5.704;2023-07-09T04:04:50;27.80;;;18.75;;
80425;SDS011;69766;51.476;5.704;2023-07-09T04:07:16;27.13;;;18.45;;
80425;SDS011;69766;51.476;5.704;2023-07-09T04:09:42;26.27;;;17.42;;
80425;SDS011;69766;51.476;5.704;2023-07-09T04:12:17;25.08;;;19.13;;
80425;SDS011;69766;51.476;5.704;2023-07-09T04:14:45;28.27;;;18.40;;
80425;SDS011;69766;51.476;5.704;2023-07-09T04:17:11;30.30;;;18.35;;
80425;SDS011;69766;51.476;5.704;2023-07-09T04:19:37;25.35;;;17.45;;
80425;SDS011;69766;51.476;5.704;2023-07-09T04:22:03;28.95;;;17.67;;
80425;SDS011;69766;51.476;5.704;2023-07-09T04:24:29;25.70;;;18.00;;
80425;SDS011;69766;51.476;5.704;2023-07-09T04:26:55;23.83;;;17.17;;
80425;SDS011;69766;51.476;5.704;2023-07-09T04:29:22;27.73;;;17.10;;
80425;SDS011;69766;51.476;5.704;2023-07-09T04:31:48;26.10;;;16.90;;
80425;SDS011;69766;51.476;5.704;2023-07-09T04:34:14;25.30;;;16.55;;
80425;SDS011;69766;51.476;5.704;2023-07-09T04:36:39;29.38;;;18.20;;
80425;SDS011;69766;51.476;5.704;2023-07-09T04:39:05;31.27;;;19.95;;
80425;SDS011;69766;51.476;5.704;2023-07-09T04:41:31;26.30;;;18.67;;
80425;SDS011;69766;51.476;5.704;2023-07-09T04:43:58;28.98;;;19.52;;
80425;SDS011;69766;51.476;5.704;2023-07-09T04:46:24;25.52;;;17.42;;
80425;SDS011;69766;51.476;5.704;2023-07-09T04:48:49;26.85;;;18.25;;
80425;SDS011;69766;51.476;5.704;2023-07-09T04:51:15;25.30;;;18.42;;
80425;SDS011;69766;51.476;5.704;2023-07-09T04:53:41;29.42;;;18.98;;
80425;SDS011;69766;51.476;5.704;2023-07-09T04:56:07;28.83;;;17.88;;
80425;SDS011;69766;51.476;5.704;2023-07-09T04:58:34;26.95;;;17.58;;
80425;SDS011;69766;51.476;5.704;2023-07-09T05:01:00;27.02;;;17.83;;
80425;SDS011;69766;51.476;5.704;2023-07-09T05:03:26;28.88;;;18.63;;
80425;SDS011;69766;51.476;5.704;2023-07-09T05:05:52;26.30;;;17.35;;
80425;SDS011;69766;51.476;5.704;2023-07-09T05:08:17;23.67;;;17.00;;
80425;SDS011;69766;51.476;5.704;2023-07-09T05:13:10;26.27;;;17.05;;
80425;SDS011;69766;51.476;5.704;2023-07-09T05:15:39;25.30;;;16.83;;
80425;SDS011;69766;51.476;5.704;2023-07-09T05:18:05;28.33;;;17.75;;
80425;SDS011;69766;51.476;5.704;2023-07-09T05:20:32;27.02;;;17.52;;
80425;SDS011;69766;51.476;5.704;2023-07-09T05:22:58;25.60;;;17.15;;
80425;SDS011;69766;51.476;5.704;2023-07-09T05:25:24;25.42;;;17.48;;
80425;SDS011;69766;51.476;5.704;2023-07-09T05:27:50;26.75;;;17.05;;
80425;SDS011;69766;51.476;5.704;2023-07-09T05:30:16;25.15;;;17.42;;
80425;SDS011;69766;51.476;5.704;2023-07-09T05:32:43;24.58;;;16.90;;
80425;SDS011;69766;51.476;5.704;2023-07-09T05:35:09;23.80;;;15.93;;
80425;SDS011;69766;51.476;5.704;2023-07-09T05:37:38;25.45;;;16.15;;
80425;SDS011;69766;51.476;5.704;2023-07-09T05:40:04;21.95;;;15.05;;
80425;SDS011;69766;51.476;5.704;2023-07-09T05:42:31;26.05;;;15.80;;
80425;SDS011;69766;51.476;5.704;2023-07-09T05:44:58;28.55;;;15.40;;
80425;SDS011;69766;51.476;5.704;2023-07-09T05:47:24;26.90;;;16.33;;
80425;SDS011;69766;51.476;5.704;2023-07-09T05:49:50;22.77;;;16.08;;
80425;SDS011;69766;51.476;5.704;2023-07-09T05:52:18;24.88;;;16.63;;
80425;SDS011;69766;51.476;5.704;2023-07-09T05:54:49;23.30;;;14.98;;
80425;SDS011;69766;51.476;5.704;2023-07-09T05:57:15;22.40;;;13.98;;
80425;SDS011;69766;51.476;5.704;2023-07-09T05:59:42;20.85;;;14.10;;
80425;SDS011;69766;51.476;5.704;2023-07-09T06:02:13;19.98;;;12.90;;
80425;SDS011;69766;51.476;5.704;2023-07-09T06:04:40;20.40;;;14.20;;
80425;SDS011;69766;51.476;5.704;2023-07-09T06:07:07;24.00;;;13.60;;
80425;SDS011;69766;51.476;5.704;2023-07-09T06:09:33;22.05;;;13.25;;
80425;SDS011;69766;51.476;5.704;2023-07-09T06:11:59;20.48;;;12.77;;
80425;SDS011;69766;51.476;5.704;2023-07-09T06:14:26;17.17;;;12.27;;
80425;SDS011;69766;51.476;5.704;2023-07-09T06:16:51;20.83;;;13.13;;
80425;SDS011;69766;51.476;5.704;2023-07-09T06:19:17;21.95;;;13.07;;
80425;SDS011;69766;51.476;5.704;2023-07-09T06:21:43;17.10;;;12.20;;
80425;SDS011;69766;51.476;5.704;2023-07-09T06:24:09;17.63;;;11.85;;
80425;SDS011;69766;51.476;5.704;2023-07-09T06:26:34;18.95;;;12.32;;
80425;SDS011;69766;51.476;5.704;2023-07-09T06:29:00;16.50;;;11.00;;
80425;SDS011;69766;51.476;5.704;2023-07-09T06:31:27;18.48;;;11.35;;
80425;SDS011;69766;51.476;5.704;2023-07-09T06:33:53;19.45;;;10.75;;
80425;SDS011;69766;51.476;5.704;2023-07-09T06:36:19;16.13;;;10.70;;
80425;SDS011;69766;51.476;5.704;2023-07-09T06:38:47;14.75;;;10.25;;
80425;SDS011;69766;51.476;5.704;2023-07-09T06:41:13;18.10;;;10.68;;
80425;SDS011;69766;51.476;5.704;2023-07-09T06:43:40;16.58;;;9.80;;
80425;SDS011;69766;51.476;5.704;2023-07-09T06:46:06;15.00;;;9.73;;
80425;SDS011;69766;51.476;5.704;2023-07-09T06:48:35;16.30;;;9.45;;
80425;SDS011;69766;51.476;5.704;2023-07-09T06:51:00;12.38;;;8.68;;
80425;SDS011;69766;51.476;5.704;2023-07-09T06:53:28;13.40;;;9.25;;
80425;SDS011;69766;51.476;5.704;2023-07-09T06:55:54;12.30;;;8.43;;
80425;SDS011;69766;51.476;5.704;2023-07-09T06:58:24;10.23;;;7.93;;
80425;SDS011;69766;51.476;5.704;2023-07-09T07:00:53;16.45;;;9.15;;
80425;SDS011;69766;51.476;5.704;2023-07-09T07:03:20;10.68;;;7.25;;
80425;SDS011;69766;51.476;5.704;2023-07-09T07:05:48;12.00;;;8.02;;
80425;SDS011;69766;51.476;5.704;2023-07-09T07:08:36;12.23;;;7.43;;
80425;SDS011;69766;51.476;5.704;2023-07-09T07:11:02;10.52;;;6.95;;
80425;SDS011;69766;51.476;5.704;2023-07-09T07:13:36;10.20;;;7.50;;
80425;SDS011;69766;51.476;5.704;2023-07-09T07:16:04;11.20;;;7.10;;
80425;SDS011;69766;51.476;5.704;2023-07-09T07:18:32;13.52;;;6.97;;
80425;SDS011;69766;51.476;5.704;2023-07-09T07:20:59;11.27;;;7.03;;
80425;SDS011;69766;51.476;5.704;2023-07-09T07:23:25;11.38;;;6.45;;
80425;SDS011;69766;51.476;5.704;2023-07-09T07:25:51;9.60;;;6.85;;
80425;SDS011;69766;51.476;5.704;2023-07-09T07:28:17;12.15;;;6.70;;
80425;SDS011;69766;51.476;5.704;2023-07-09T07:30:43;8.75;;;6.28;;
80425;SDS011;69766;51.476;5.704;2023-07-09T07:33:09;9.55;;;6.97;;
80425;SDS011;69766;51.476;5.704;2023-07-09T07:35:55;12.05;;;7.13;;
80425;SDS011;69766;51.476;5.704;2023-07-09T07:38:23;10.07;;;6.03;;
80425;SDS011;69766;51.476;5.704;2023-07-09T07:44:17;9.45;;;6.25;;
80425;SDS011;69766;51.476;5.704;2023-07-09T07:46:43;12.38;;;6.18;;
80425;SDS011;69766;51.476;5.704;2023-07-09T07:49:10;10.32;;;5.55;;
80425;SDS011;69766;51.476;5.704;2023-07-09T07:51:36;10.05;;;5.63;;
80425;SDS011;69766;51.476;5.704;2023-07-09T07:54:05;12.45;;;4.90;;
80425;SDS011;69766;51.476;5.704;2023-07-09T07:56:37;8.57;;;5.43;;
80425;SDS011;69766;51.476;5.704;2023-07-09T07:59:04;10.23;;;5.10;;
80425;SDS011;69766;51.476;5.704;2023-07-09T08:01:30;7.47;;;5.20;;
80425;SDS011;69766;51.476;5.704;2023-07-09T08:03:56;8.52;;;5.53;;
80425;SDS011;69766;51.476;5.704;2023-07-09T08:06:26;8.90;;;4.47;;
80425;SDS011;69766;51.476;5.704;2023-07-09T08:16:22;9.93;;;5.63;;
80425;SDS011;69766;51.476;5.704;2023-07-09T08:18:48;9.80;;;5.50;;
80425;SDS011;69766;51.476;5.704;2023-07-09T08:24:30;8.65;;;5.13;;
80425;SDS011;69766;51.476;5.704;2023-07-09T08:26:56;9.23;;;5.13;;
80425;SDS011;69766;51.476;5.704;2023-07-09T08:29:25;8.13;;;5.05;;
80425;SDS011;69766;51.476;5.704;2023-07-09T08:31:54;7.90;;;5.35;;
80425;SDS011;69766;51.476;5.704;2023-07-09T08:34:22;8.90;;;5.13;;
80425;SDS011;69766;51.476;5.704;2023-07-09T08:37:27;9.38;;;5.50;;
80425;SDS011;69766;51.476;5.704;2023-07-09T08:39:56;10.10;;;5.80;;
80425;SDS011;69766;51.476;5.704;2023-07-09T08:49:31;8.90;;;5.40;;
80425;SDS011;69766;51.476;5.704;2023-07-09T08:52:17;8.88;;;5.60;;
80425;SDS011;69766;51.476;5.704;2023-07-09T08:54:50;10.07;;;5.55;;
80425;SDS011;69766;51.476;5.704;2023-07-09T08:57:25;9.65;;;5.18;;
80425;SDS011;69766;51.476;5.704;2023-07-09T08:59:57;10.43;;;5.93;;
80425;SDS011;69766;51.476;5.704;2023-07-09T09:02:39;10.40;;;5.88;;
80425;SDS011;69766;51.476;5.704;2023-07-09T09:05:10;8.80;;;5.10;;
80425;SDS011;69766;51.476;5.704;2023-07-09T09:07:42;8.02;;;5.30;;
80425;SDS011;69766;51.476;5.704;2023-07-09T09:10:18;9.40;;;6.25;;
80425;SDS011;69766;51.476;5.704;2023-07-09T09:15:35;8.18;;;4.93;;
80425;SDS011;69766;51.476;5.704;2023-07-09T09:18:29;7.75;;;5.47;;
80425;SDS011;69766;51.476;5.704;2023-07-09T09:21:28;10.70;;;6.23;;
80425;SDS011;69766;51.476;5.704;2023-07-09T09:23:56;10.00;;;5.28;;
80425;SDS011;69766;51.476;5.704;2023-07-09T09:26:28;9.50;;;5.32;;
80425;SDS011;69766;51.476;5.704;2023-07-09T09:29:00;9.73;;;5.55;;
80425;SDS011;69766;51.476;5.704;2023-07-09T09:31:35;10.98;;;5.72;;
80425;SDS011;69766;51.476;5.704;2023-07-09T09:34:01;8.75;;;5.75;;
80425;SDS011;69766;51.476;5.704;2023-07-09T09:36:27;8.18;;;4.72;;
80425;SDS011;69766;51.476;5.704;2023-07-09T09:38:53;8.23;;;5.45;;
80425;SDS011;69766;51.476;5.704;2023-07-09T09:41:20;8.82;;;5.63;;
80425;SDS011;69766;51.476;5.704;2023-07-09T09:46:24;8.40;;;5.30;;
80425;SDS011;69766;51.476;5.704;2023-07-09T09:48:55;11.20;;;5.15;;
80425;SDS011;69766;51.476;5.704;2023-07-09T09:51:24;9.18;;;5.10;;
80425;SDS011;69766;51.476;5.704;2023-07-09T09:53:50;10.98;;;4.43;;
80425;SDS011;69766;51.476;5.704;2023-07-09T09:56:54;10.70;;;5.28;;
80425;SDS011;69766;51.476;5.704;2023-07-09T09:59:32;10.30;;;4.63;;
80425;SDS011;69766;51.476;5.704;2023-07-09T10:04:39;10.55;;;5.45;;
80425;SDS011;69766;51.476;5.704;2023-07-09T10:07:06;9.25;;;5.28;;
80425;SDS011;69766;51.476;5.704;2023-07-09T10:14:58;7.72;;;5.35;;
80425;SDS011;69766;51.476;5.704;2023-07-09T10:18:06;7.32;;;4.45;;
80425;SDS011;69766;51.476;5.704;2023-07-09T10:23:37;7.70;;;4.70;;
80425;SDS011;69766;51.476;5.704;2023-07-09T10:26:11;9.15;;;5.13;;
80425;SDS011;69766;51.476;5.704;2023-07-09T10:32:03;8.38;;;4.30;;
80425;SDS011;69766;51.476;5.704;2023-07-09T10:34:56;7.13;;;4.53;;
80425;SDS011;69766;51.476;5.704;2023-07-09T10:39:52;8.40;;;4.13;;
80425;SDS011;69766;51.476;5.704;2023-07-09T10:42:29;7.55;;;4.03;;
80425;SDS011;69766;51.476;5.704;2023-07-09T10:45:09;9.57;;;4.60;;
80425;SDS011;69766;51.476;5.704;2023-07-09T10:47:38;10.35;;;4.13;;
80425;SDS011;69766;51.476;5.704;2023-07-09T10:52:56;7.75;;;4.45;;
80425;SDS011;69766;51.476;5.704;2023-07-09T10:55:31;8.65;;;4.57;;
80425;SDS011;69766;51.476;5.704;2023-07-09T10:58:15;6.35;;;3.83;;
80425;SDS011;69766;51.476;5.704;2023-07-09T11:01:00;8.45;;;4.40;;
80425;SDS011;69766;51.476;5.704;2023-07-09T11:06:04;9.82;;;4.57;;
80425;SDS011;69766;51.476;5.704;2023-07-09T11:08:37;7.00;;;4.88;;
80425;SDS011;69766;51.476;5.704;2023-07-09T11:11:06;8.23;;;4.97;;
80425;SDS011;69766;51.476;5.704;2023-07-09T11:13:50;9.00;;;5.25;;
80425;SDS011;69766;51.476;5.704;2023-07-09T11:16:25;8.00;;;4.80;;
80425;SDS011;69766;51.476;5.704;2023-07-09T11:18:55;8.40;;;4.22;;
80425;SDS011;69766;51.476;5.704;2023-07-09T11:21:25;7.93;;;4.47;;
80425;SDS011;69766;51.476;5.704;2023-07-09T11:23:54;8.60;;;4.30;;
80425;SDS011;69766;51.476;5.704;2023-07-09T11:26:23;9.13;;;5.03;;
80425;SDS011;69766;51.476;5.704;2023-07-09T11:36:32;8.38;;;5.03;;
80425;SDS011;69766;51.476;5.704;2023-07-09T11:39:00;10.38;;;5.03;;
80425;SDS011;69766;51.476;5.704;2023-07-09T11:41:34;10.45;;;5.00;;
80425;SDS011;69766;51.476;5.704;2023-07-09T11:44:10;7.50;;;4.40;;
80425;SDS011;69766;51.476;5.704;2023-07-09T11:46:44;7.65;;;4.70;;
80425;SDS011;69766;51.476;5.704;2023-07-09T11:49:45;8.27;;;5.00;;
80425;SDS011;69766;51.476;5.704;2023-07-09T11:52:23;12.30;;;5.20;;
80425;SDS011;69766;51.476;5.704;2023-07-09T11:54:56;10.35;;;5.55;;
80425;SDS011;69766;51.476;5.704;2023-07-09T11:57:22;9.07;;;4.95;;
80425;SDS011;69766;51.476;5.704;2023-07-09T11:59:47;7.43;;;4.40;;
80425;SDS011;69766;51.476;5.704;2023-07-09T12:02:18;9.63;;;5.32;;
80425;SDS011;69766;51.476;5.704;2023-07-09T12:07:56;7.75;;;4.78;;
80425;SDS011;69766;51.476;5.704;2023-07-09T12:10:25;8.95;;;4.63;;
80425;SDS011;69766;51.476;5.704;2023-07-09T12:12:58;8.60;;;4.28;;
80425;SDS011;69766;51.476;5.704;2023-07-09T12:15:28;6.40;;;3.70;;
80425;SDS011;69766;51.476;5.704;2023-07-09T12:18:03;5.80;;;3.65;;
80425;SDS011;69766;51.476;5.704;2023-07-09T12:20:39;7.95;;;3.63;;
80425;SDS011;69766;51.476;5.704;2023-07-09T12:23:12;7.05;;;3.92;;
80425;SDS011;69766;51.476;5.704;2023-07-09T12:26:01;5.90;;;3.97;;
80425;SDS011;69766;51.476;5.704;2023-07-09T12:28:29;7.80;;;3.97;;
80425;SDS011;69766;51.476;5.704;2023-07-09T12:30:55;8.48;;;3.88;;
80425;SDS011;69766;51.476;5.704;2023-07-09T12:33:22;9.60;;;4.10;;
80425;SDS011;69766;51.476;5.704;2023-07-09T12:35:53;6.70;;;3.90;;
80425;SDS011;69766;51.476;5.704;2023-07-09T12:38:33;9.38;;;4.30;;
80425;SDS011;69766;51.476;5.704;2023-07-09T12:41:16;8.10;;;4.15;;
80425;SDS011;69766;51.476;5.704;2023-07-09T12:44:00;6.88;;;4.13;;
80425;SDS011;69766;51.476;5.704;2023-07-09T12:46:26;9.43;;;4.15;;
80425;SDS011;69766;51.476;5.704;2023-07-09T12:48:54;9.23;;;4.22;;
80425;SDS011;69766;51.476;5.704;2023-07-09T12:51:25;9.25;;;4.18;;
80425;SDS011;69766;51.476;5.704;2023-07-09T12:54:11;8.30;;;4.38;;
80425;SDS011;69766;51.476;5.704;2023-07-09T12:56:40;9.75;;;4.93;;
80425;SDS011;69766;51.476;5.704;2023-07-09T12:59:14;9.55;;;4.80;;
80425;SDS011;69766;51.476;5.704;2023-07-09T13:01:49;8.88;;;5.43;;
80425;SDS011;69766;51.476;5.704;2023-07-09T13:04:27;9.27;;;5.70;;
80425;SDS011;69766;51.476;5.704;2023-07-09T13:07:01;10.15;;;5.32;;
80425;SDS011;69766;51.476;5.704;2023-07-09T13:09:28;8.57;;;4.72;;
80425;SDS011;69766;51.476;5.704;2023-07-09T13:11:54;8.52;;;5.53;;
80425;SDS011;69766;51.476;5.704;2023-07-09T13:14:21;8.70;;;5.20;;
80425;SDS011;69766;51.476;5.704;2023-07-09T13:16:49;6.97;;;4.88;;
80425;SDS011;69766;51.476;5.704;2023-07-09T13:19:16;8.38;;;4.65;;
80425;SDS011;69766;51.476;5.704;2023-07-09T13:21:43;9.80;;;6.00;;
80425;SDS011;69766;51.476;5.704;2023-07-09T13:24:13;13.27;;;7.13;;
80425;SDS011;69766;51.476;5.704;2023-07-09T13:26:47;11.82;;;8.38;;
80425;SDS011;69766;51.476;5.704;2023-07-09T13:29:14;11.75;;;9.40;;
80425;SDS011;69766;51.476;5.704;2023-07-09T13:31:43;12.27;;;8.98;;
80425;SDS011;69766;51.476;5.704;2023-07-09T13:34:25;15.30;;;9.00;;
80425;SDS011;69766;51.476;5.704;2023-07-09T13:36:53;15.38;;;9.50;;
80425;SDS011;69766;51.476;5.704;2023-07-09T13:39:21;13.82;;;10.13;;
80425;SDS011;69766;51.476;5.704;2023-07-09T13:41:48;20.83;;;11.02;;
80425;SDS011;69766;51.476;5.704;2023-07-09T13:44:19;25.95;;;12.02;;
80425;SDS011;69766;51.476;5.704;2023-07-09T13:46:47;17.88;;;11.32;;
80425;SDS011;69766;51.476;5.704;2023-07-09T13:49:13;17.42;;;12.80;;
80425;SDS011;69766;51.476;5.704;2023-07-09T13:51:43;17.13;;;11.63;;
80425;SDS011;69766;51.476;5.704;2023-07-09T13:54:21;17.92;;;12.57;;
80425;SDS011;69766;51.476;5.704;2023-07-09T13:56:48;20.10;;;14.02;;
80425;SDS011;69766;51.476;5.704;2023-07-09T13:59:16;23.35;;;15.75;;
80425;SDS011;69766;51.476;5.704;2023-07-09T14:01:44;24.10;;;17.57;;
80425;SDS011;69766;51.476;5.704;2023-07-09T14:04:13;27.38;;;18.80;;
80425;SDS011;69766;51.476;5.704;2023-07-09T14:06:40;26.30;;;18.83;;
80425;SDS011;69766;51.476;5.704;2023-07-09T14:09:06;30.55;;;20.73;;
80425;SDS011;69766;51.476;5.704;2023-07-09T14:11:35;29.88;;;20.00;;
80425;SDS011;69766;51.476;5.704;2023-07-09T14:14:16;30.55;;;19.95;;
80425;SDS011;69766;51.476;5.704;2023-07-09T14:16:42;33.33;;;19.92;;
80425;SDS011;69766;51.476;5.704;2023-07-09T14:19:18;25.00;;;17.42;;
80425;SDS011;69766;51.476;5.704;2023-07-09T14:21:46;28.17;;;19.30;;
80425;SDS011;69766;51.476;5.704;2023-07-09T14:24:17;20.85;;;14.88;;
80425;SDS011;69766;51.476;5.704;2023-07-09T14:26:45;22.67;;;15.68;;
80425;SDS011;69766;51.476;5.704;2023-07-09T14:29:12;21.05;;;12.90;;
80425;SDS011;69766;51.476;5.704;2023-07-09T14:31:39;18.55;;;13.27;;
80425;SDS011;69766;51.476;5.704;2023-07-09T14:34:25;16.95;;;11.73;;
80425;SDS011;69766;51.476;5.704;2023-07-09T14:36:54;14.00;;;10.25;;
80425;SDS011;69766;51.476;5.704;2023-07-09T14:39:21;14.70;;;11.00;;
80425;SDS011;69766;51.476;5.704;2023-07-09T14:41:47;21.30;;;9.75;;
80425;SDS011;69766;51.476;5.704;2023-07-09T14:44:23;14.25;;;9.40;;
80425;SDS011;69766;51.476;5.704;2023-07-09T14:46:50;14.23;;;9.70;;
80425;SDS011;69766;51.476;5.704;2023-07-09T14:49:17;15.40;;;10.15;;
80425;SDS011;69766;51.476;5.704;2023-07-09T14:51:44;11.48;;;9.23;;
80425;SDS011;69766;51.476;5.704;2023-07-09T14:54:17;14.50;;;9.02;;
80425;SDS011;69766;51.476;5.704;2023-07-09T14:56:54;13.18;;;8.85;;
80425;SDS011;69766;51.476;5.704;2023-07-09T14:59:21;13.82;;;8.43;;
80425;SDS011;69766;51.476;5.704;2023-07-09T15:01:48;12.38;;;7.70;;
80425;SDS011;69766;51.476;5.704;2023-07-09T15:06:46;9.05;;;6.40;;
80425;SDS011;69766;51.476;5.704;2023-07-09T15:09:13;13.98;;;8.05;;
80425;SDS011;69766;51.476;5.704;2023-07-09T15:11:39;12.70;;;7.43;;
80425;SDS011;69766;51.476;5.704;2023-07-09T15:14:09;14.10;;;9.25;;
80425;SDS011;69766;51.476;5.704;2023-07-09T15:16:36;12.95;;;9.45;;
80425;SDS011;69766;51.476;5.704;2023-07-09T15:19:04;12.20;;;7.63;;
80425;SDS011;69766;51.476;5.704;2023-07-09T15:21:37;13.13;;;8.68;;
80425;SDS011;69766;51.476;5.704;2023-07-09T15:24:02;13.77;;;9.30;;
80425;SDS011;69766;51.476;5.704;2023-07-09T15:26:28;12.40;;;8.50;;
80425;SDS011;69766;51.476;5.704;2023-07-09T15:28:54;12.20;;;9.00;;
80425;SDS011;69766;51.476;5.704;2023-07-09T15:31:19;12.90;;;8.70;;
80425;SDS011;69766;51.476;5.704;2023-07-09T15:33:45;12.02;;;8.45;;
80425;SDS011;69766;51.476;5.704;2023-07-09T15:36:11;11.55;;;8.63;;
80425;SDS011;69766;51.476;5.704;2023-07-09T15:38:37;12.52;;;8.82;;
80425;SDS011;69766;51.476;5.704;2023-07-09T15:41:11;13.93;;;9.15;;
80425;SDS011;69766;51.476;5.704;2023-07-09T15:43:37;12.73;;;9.10;;
80425;SDS011;69766;51.476;5.704;2023-07-09T15:46:03;12.38;;;8.63;;
80425;SDS011;69766;51.476;5.704;2023-07-09T15:48:31;10.73;;;8.30;;